Terminal Aerodrome Forecast
Issued by NWS Dallas/Fort Worth, TX

Home | Current Version | Previous Version | Text Only | Print | Product List | Glossary On
Versions: 1 2 3 4 5 6 7 8 9 10 11 12 13 14 15 16 17 18 19 20 21 22 23 24 25 26 27 28 29 30 31 32
227
FTUS44 KFWD 271120
TAFACT
TAF
KACT 271120Z 2712/2812 21008KT 3SM BR BKN009
     FM271500 33010KT P6SM SCT025
     FM280100 05006KT P6SM FEW250
     FM280800 09006KT P6SM BKN012
     FM281000 12007KT 3SM -RA BR BKN006=

USA.gov is the U.S. government's official web portal to all federal, state and local government web resources and services.